createdAt,value
2022-08-24T00:01:17.643Z,79.86
2022-08-24T00:03:46.909Z,80.61
2022-08-24T00:06:19.386Z,80.99
2022-08-24T00:08:47.643Z,81.04
2022-08-24T00:11:17.270Z,80.79
2022-08-24T00:13:45.727Z,80.71
2022-08-24T00:16:14.321Z,81.07
2022-08-24T00:18:42.511Z,81.62
2022-08-24T00:21:10.890Z,81.40
2022-08-24T00:23:38.761Z,81.51
2022-08-24T00:26:07.335Z,81.81
2022-08-24T00:28:37.484Z,81.61
2022-08-24T00:31:08.137Z,82.37
2022-08-24T00:33:36.682Z,83.05
2022-08-24T00:36:05.803Z,82.89
2022-08-24T00:38:35.493Z,83.41
2022-08-24T00:41:03.654Z,83.08
2022-08-24T00:43:31.847Z,83.36
2022-08-24T00:46:12.064Z,82.67
2022-08-24T00:48:45.381Z,82.93
2022-08-24T00:51:18.859Z,83.13
2022-08-24T00:53:50.268Z,84.00
2022-08-24T00:56:21.995Z,83.13
2022-08-24T00:58:52.894Z,83.31
2022-08-24T01:01:27.177Z,83.53
2022-08-24T01:03:57.970Z,83.11
2022-08-24T01:06:26.055Z,82.49
2022-08-24T01:08:56.701Z,83.00
2022-08-24T01:11:29.192Z,83.79
2022-08-24T01:14:03.344Z,84.14
2022-08-24T01:16:50.007Z,83.37
2022-08-24T01:19:30.410Z,83.20
2022-08-24T01:22:11.789Z,83.04
2022-08-24T01:24:41.820Z,84.38
2022-08-24T01:27:11.399Z,83.46
2022-08-24T01:29:42.852Z,83.45
2022-08-24T01:32:11.924Z,84.04
2022-08-24T01:34:40.110Z,84.66
2022-08-24T01:37:10.883Z,85.05
2022-08-24T01:39:44.976Z,85.68
2022-08-24T01:42:14.418Z,85.93
2022-08-24T01:44:45.478Z,86.27
2022-08-24T01:47:16.201Z,85.78
2022-08-24T01:49:47.280Z,84.59
2022-08-24T01:52:19.779Z,83.90
2022-08-24T01:54:49.856Z,84.94
2022-08-24T01:57:20.530Z,84.94
2022-08-24T01:59:51.191Z,85.82
2022-08-24T02:02:22.734Z,86.56
2022-08-24T02:04:50.792Z,85.77
2022-08-24T02:07:19.673Z,85.28
2022-08-24T02:09:48.862Z,85.89
2022-08-24T02:12:18.300Z,85.76
2022-08-24T02:14:47.395Z,85.98
2022-08-24T02:17:15.244Z,85.96
2022-08-24T02:19:43.353Z,85.94
2022-08-24T02:22:11.862Z,85.80
2022-08-24T02:24:40.561Z,86.25
2022-08-24T02:27:09.849Z,86.66
2022-08-24T02:29:37.925Z,86.46
2022-08-24T02:32:07.058Z,86.26
2022-08-24T02:34:34.913Z,86.13
2022-08-24T02:37:02.810Z,86.42
2022-08-24T02:39:31.039Z,86.52
2022-08-24T02:42:01.023Z,86.58
2022-08-24T02:44:30.392Z,87.12
2022-08-24T02:46:58.636Z,87.51
2022-08-24T02:49:26.600Z,86.82
2022-08-24T02:51:55.518Z,86.25
2022-08-24T02:54:23.518Z,86.71
2022-08-24T02:56:54.499Z,85.77
2022-08-24T02:59:23.162Z,86.15
2022-08-24T03:01:53.171Z,86.43
2022-08-24T03:04:22.513Z,86.01
2022-08-24T03:06:50.493Z,85.71
2022-08-24T03:09:18.663Z,86.91
2022-08-24T03:11:46.644Z,87.09
2022-08-24T03:14:15.063Z,87.13
2022-08-24T03:16:45.296Z,86.72
2022-08-24T03:19:15.472Z,86.37
2022-08-24T03:21:45.394Z,86.67
2022-08-24T03:24:13.851Z,86.55
2022-08-24T03:26:44.281Z,87.01
2022-08-24T03:29:13.854Z,87.47
2022-08-24T03:31:44.478Z,87.65
2022-08-24T03:34:14.265Z,87.56
2022-08-24T03:36:46.283Z,87.80
2022-08-24T03:39:16.302Z,87.92
2022-08-24T03:41:44.639Z,88.16
2022-08-24T03:44:12.620Z,87.72
2022-08-24T03:46:41.609Z,87.30
2022-08-24T03:49:10.894Z,87.19
2022-08-24T03:51:40.776Z,87.59
2022-08-24T03:54:10.981Z,86.64
2022-08-24T03:56:39.703Z,87.13
2022-08-24T03:59:09.188Z,87.99
2022-08-24T04:01:41.288Z,88.01
2022-08-24T04:04:09.924Z,88.36
2022-08-24T04:06:44.256Z,88.05
2022-08-24T04:09:12.752Z,88.50
2022-08-24T04:11:43.654Z,87.94
2022-08-24T04:14:26.961Z,86.71
2022-08-24T04:17:14.376Z,86.74
2022-08-24T04:19:57.597Z,86.79
2022-08-24T04:22:34.050Z,87.25
2022-08-24T04:25:02.003Z,87.04
2022-08-24T04:27:36.707Z,87.22
2022-08-24T04:30:06.148Z,87.61
2022-08-24T04:32:43.958Z,87.32
2022-08-24T04:35:12.554Z,86.98
2022-08-24T04:37:41.778Z,86.99
2022-08-24T04:40:10.850Z,87.25
2022-08-24T04:42:45.553Z,87.77
2022-08-24T04:45:13.405Z,87.54
2022-08-24T04:47:41.154Z,87.29
2022-08-24T04:50:09.571Z,87.67
2022-08-24T04:52:37.487Z,87.74
2022-08-24T04:55:07.576Z,87.88
2022-08-24T04:57:36.555Z,87.74
2022-08-24T05:00:07.177Z,88.23
2022-08-24T05:02:39.837Z,88.32
2022-08-24T05:05:11.379Z,88.48
2022-08-24T05:07:39.911Z,89.04
2022-08-24T05:10:11.175Z,88.28
2022-08-24T05:12:39.937Z,88.85
2022-08-24T05:15:11.695Z,89.04
2022-08-24T05:17:43.650Z,89.29
2022-08-24T05:20:22.062Z,89.96
2022-08-24T05:22:55.638Z,90.49
2022-08-24T05:25:28.992Z,90.34
2022-08-24T05:27:56.958Z,90.32
2022-08-24T05:30:24.957Z,89.76
2022-08-24T05:32:52.907Z,88.73
2022-08-24T05:35:21.718Z,88.41
2022-08-24T05:37:49.725Z,87.72
2022-08-24T05:40:20.585Z,86.90
2022-08-24T05:42:55.448Z,86.78
2022-08-24T05:45:23.820Z,87.31
2022-08-24T05:47:52.063Z,86.83
2022-08-24T05:50:40.129Z,87.22
2022-08-24T05:53:09.075Z,86.88
2022-08-24T05:55:39.611Z,86.67
2022-08-24T05:58:08.842Z,86.52
2022-08-24T06:00:40.447Z,86.62
2022-08-24T06:03:08.746Z,86.38
2022-08-24T06:05:48.956Z,86.32
2022-08-24T06:08:16.924Z,86.96
2022-08-24T06:10:48.310Z,87.17
2022-08-24T06:13:17.901Z,86.96
2022-08-24T06:16:04.829Z,86.29
2022-08-24T06:18:34.509Z,86.78
2022-08-24T06:21:09.202Z,86.84
2022-08-24T06:23:38.139Z,86.21
2022-08-24T06:26:25.448Z,85.77
2022-08-24T06:28:55.040Z,83.46
2022-08-24T06:31:24.322Z,82.88
2022-08-24T06:33:53.728Z,81.86
2022-08-24T06:36:22.869Z,81.05
2022-08-24T06:38:50.829Z,81.68
2022-08-24T06:41:18.683Z,82.02
2022-08-24T06:43:46.643Z,79.98
2022-08-24T06:46:19.832Z,79.48
2022-08-24T06:48:51.355Z,79.59
2022-08-24T06:51:22.578Z,80.20
2022-08-24T06:53:51.474Z,79.50
2022-08-24T06:56:20.125Z,77.91
2022-08-24T06:58:48.633Z,78.24
2022-08-24T07:01:25.678Z,77.88
2022-08-24T07:03:55.691Z,74.41
2022-08-24T07:06:42.054Z,74.81
2022-08-24T07:09:10.256Z,73.97
2022-08-24T07:11:38.129Z,71.71
2022-08-24T07:14:07.760Z,68.70
2022-08-24T07:16:37.146Z,69.83
2022-08-24T07:19:06.557Z,68.49
2022-08-24T07:21:34.576Z,68.85
2022-08-24T07:24:07.055Z,65.93
2022-08-24T07:26:39.204Z,66.71
2022-08-24T07:29:30.611Z,65.17
2022-08-24T07:32:01.708Z,66.46
2022-08-24T07:34:38.427Z,65.57
2022-08-24T07:37:08.412Z,64.29
2022-08-24T07:39:39.667Z,62.82
2022-08-24T07:42:13.373Z,62.90
2022-08-24T07:44:43.431Z,61.54
2022-08-24T07:47:37.029Z,61.90
2022-08-24T07:50:05.400Z,62.43
2022-08-24T07:52:35.938Z,62.90
2022-08-24T07:55:04.424Z,62.50
2022-08-24T07:57:33.111Z,61.60
2022-08-24T08:00:05.012Z,61.67
2022-08-24T08:02:46.587Z,61.98
2022-08-24T08:05:18.212Z,61.75
2022-08-24T08:07:51.711Z,62.40
2022-08-24T08:10:21.913Z,62.92
2022-08-24T08:12:50.527Z,63.02
2022-08-24T08:15:18.332Z,62.24
2022-08-24T08:18:02.738Z,60.85
2022-08-24T08:20:31.872Z,61.08
2022-08-24T08:23:19.839Z,62.17
2022-08-24T08:26:01.879Z,62.44
2022-08-24T08:28:48.607Z,61.77
2022-08-24T08:31:16.794Z,63.02
2022-08-24T08:33:46.964Z,62.64
2022-08-24T08:36:16.093Z,62.23
2022-08-24T08:38:50.799Z,61.33
2022-08-24T08:42:05.162Z,59.72
2022-08-24T08:44:50.870Z,60.47
2022-08-24T08:47:34.524Z,60.67
2022-08-24T08:50:14.345Z,62.13
2022-08-24T08:53:18.691Z,60.11
2022-08-24T08:55:54.372Z,60.94
2022-08-24T08:58:38.968Z,62.16
2022-08-24T09:01:16.208Z,60.82
2022-08-24T09:04:12.739Z,58.79
2022-08-24T09:07:05.936Z,59.12
2022-08-24T09:09:58.372Z,60.46
2022-08-24T09:12:38.995Z,60.46
2022-08-24T09:15:40.968Z,59.41
2022-08-24T09:18:21.478Z,57.82
2022-08-24T09:21:14.147Z,59.77
2022-08-24T09:23:53.927Z,59.75
2022-08-24T09:26:29.053Z,58.48
2022-08-24T09:29:10.960Z,58.91
2022-08-24T09:31:51.690Z,56.89
2022-08-24T09:34:31.888Z,55.53
2022-08-24T09:37:20.474Z,56.84
2022-08-24T09:40:02.568Z,57.95
2022-08-24T09:43:18.326Z,56.15
2022-08-24T09:46:31.458Z,54.60
2022-08-24T09:49:27.304Z,54.41
2022-08-24T09:52:23.392Z,53.81
2022-08-24T09:55:28.231Z,54.04
2022-08-24T09:58:09.758Z,53.79
2022-08-24T10:00:44.933Z,52.87
2022-08-24T10:03:37.785Z,53.44
2022-08-24T10:06:16.808Z,52.68
2022-08-24T10:09:04.318Z,51.85
2022-08-24T10:11:46.383Z,52.42
2022-08-24T10:14:20.351Z,50.66
2022-08-24T10:17:01.672Z,50.14
2022-08-24T10:19:48.848Z,51.52
2022-08-24T10:22:28.303Z,49.32
2022-08-24T10:25:10.457Z,48.25
2022-08-24T10:27:50.768Z,48.25
2022-08-24T10:30:59.016Z,47.91
2022-08-24T10:33:29.342Z,45.82
2022-08-24T10:36:14.423Z,46.14
2022-08-24T10:39:07.879Z,44.21
2022-08-24T10:42:36.260Z,43.42
2022-08-24T10:45:33.149Z,43.81
2022-08-24T10:48:23.070Z,43.07
2022-08-24T10:50:58.271Z,43.22
2022-08-24T10:53:28.362Z,42.41
2022-08-24T10:56:09.751Z,42.03
2022-08-24T10:58:50.667Z,40.79
2022-08-24T11:01:30.077Z,39.67
2022-08-24T11:04:03.203Z,38.98
2022-08-24T11:06:41.943Z,39.38
2022-08-24T11:09:17.248Z,38.65
2022-08-24T11:11:49.728Z,38.91
2022-08-24T11:14:26.557Z,36.90
2022-08-24T11:16:57.970Z,37.68
2022-08-24T11:19:35.018Z,36.99
2022-08-24T11:22:07.920Z,36.44
2022-08-24T11:24:43.258Z,38.21
2022-08-24T11:27:26.218Z,36.40
2022-08-24T11:30:11.552Z,37.48
2022-08-24T11:32:43.361Z,35.43
2022-08-24T11:35:23.558Z,35.39
2022-08-24T11:37:56.543Z,36.34
2022-08-24T11:40:30.316Z,34.97
2022-08-24T11:43:13.575Z,33.44
2022-08-24T11:45:48.181Z,33.02
2022-08-24T11:48:29.874Z,32.66
2022-08-24T11:51:04.661Z,31.56
2022-08-24T11:53:53.127Z,32.63
2022-08-24T11:56:31.779Z,31.78
2022-08-24T11:59:12.239Z,31.57
2022-08-24T12:01:48.773Z,31.37
2022-08-24T12:04:42.659Z,31.65
2022-08-24T12:07:21.374Z,32.11
2022-08-24T12:10:10.043Z,30.72
2022-08-24T12:12:46.402Z,30.43
2022-08-24T12:15:19.081Z,29.80
2022-08-24T12:17:54.108Z,29.70
2022-08-24T12:20:31.893Z,30.09
2022-08-24T12:23:03.794Z,29.88
2022-08-24T12:25:55.370Z,29.45
2022-08-24T12:28:26.875Z,29.18
2022-08-24T12:30:58.038Z,29.21
2022-08-24T12:33:32.187Z,29.34
2022-08-24T12:36:14.485Z,28.97
2022-08-24T12:38:46.602Z,28.84
2022-08-24T12:41:24.912Z,28.83
2022-08-24T12:44:03.422Z,28.37
2022-08-24T12:46:31.627Z,29.71
2022-08-24T12:49:08.223Z,29.71
2022-08-24T12:51:51.599Z,28.45
2022-08-24T12:54:36.411Z,28.86
2022-08-24T12:57:31.683Z,28.74
2022-08-24T13:00:09.835Z,29.09
2022-08-24T13:02:47.898Z,28.76
2022-08-24T13:05:20.396Z,28.98
2022-08-24T13:07:50.978Z,30.07
2022-08-24T13:10:44.111Z,30.97
2022-08-24T13:13:18.215Z,30.07
2022-08-24T13:15:59.433Z,29.82
2022-08-24T13:19:13.515Z,29.59
2022-08-24T13:21:45.946Z,29.75
2022-08-24T13:24:51.338Z,29.76
2022-08-24T13:28:12.449Z,30.04
2022-08-24T13:31:12.462Z,29.15
2022-08-24T13:33:44.005Z,29.83
2022-08-24T13:36:41.876Z,29.70
2022-08-24T13:39:23.518Z,29.02
2022-08-24T13:42:05.095Z,29.01
2022-08-24T13:44:51.549Z,28.79
2022-08-24T13:47:29.108Z,28.07
2022-08-24T13:50:09.322Z,28.20
2022-08-24T13:52:57.260Z,28.61
2022-08-24T13:55:43.753Z,29.78
2022-08-24T13:58:19.643Z,29.84
2022-08-24T14:00:58.453Z,30.10
2022-08-24T14:03:57.805Z,32.00
2022-08-24T14:06:38.025Z,31.34
2022-08-24T14:09:38.154Z,30.94
2022-08-24T14:12:19.796Z,30.67
2022-08-24T14:15:11.619Z,31.39
2022-08-24T14:17:54.095Z,30.80
2022-08-24T14:20:44.159Z,31.25
2022-08-24T14:23:34.381Z,31.45
2022-08-24T14:26:53.860Z,31.89
2022-08-24T14:29:37.250Z,32.14
2022-08-24T14:32:45.756Z,32.41
2022-08-24T14:35:46.097Z,31.80
2022-08-24T14:38:32.231Z,32.77
2022-08-24T14:41:10.800Z,32.08
2022-08-24T14:44:00.004Z,33.49
2022-08-24T14:46:35.870Z,32.89
2022-08-24T14:49:15.478Z,32.12
2022-08-24T14:51:56.987Z,32.67
2022-08-24T14:54:36.935Z,31.47
2022-08-24T14:57:20.583Z,32.78
2022-08-24T14:59:58.644Z,31.77
2022-08-24T15:02:52.871Z,33.70
2022-08-24T15:05:25.476Z,33.32
2022-08-24T15:07:58.423Z,32.74
2022-08-24T15:10:30.029Z,33.43
2022-08-24T15:13:03.931Z,32.41
2022-08-24T15:15:34.936Z,32.06
2022-08-24T15:18:06.870Z,31.84
2022-08-24T15:20:48.473Z,31.55
2022-08-24T15:23:24.005Z,31.98
2022-08-24T15:25:59.276Z,30.91
2022-08-24T15:28:31.256Z,30.88
2022-08-24T15:31:01.438Z,31.64
2022-08-24T15:33:31.426Z,31.77
2022-08-24T15:36:09.427Z,32.85
2022-08-24T15:38:40.162Z,33.13
2022-08-24T15:41:13.360Z,32.61
2022-08-24T15:43:47.087Z,32.75
2022-08-24T15:46:20.827Z,32.03
2022-08-24T15:48:50.947Z,32.81
2022-08-24T15:51:44.508Z,31.63
2022-08-24T15:54:30.991Z,32.60
2022-08-24T15:57:01.094Z,31.96
2022-08-24T15:59:32.989Z,32.13
2022-08-24T16:02:28.456Z,32.59
2022-08-24T16:05:14.156Z,32.49
2022-08-24T16:08:09.568Z,32.91
2022-08-24T16:10:41.832Z,33.02
2022-08-24T16:13:28.499Z,33.09
2022-08-24T16:16:06.063Z,32.17
2022-08-24T16:18:49.000Z,33.39
2022-08-24T16:21:22.355Z,33.38
2022-08-24T16:23:57.017Z,33.50
2022-08-24T16:26:29.380Z,33.53
2022-08-24T16:28:59.956Z,33.24
2022-08-24T16:31:48.783Z,33.56
2022-08-24T16:34:21.571Z,33.98
2022-08-24T16:36:49.603Z,32.36
2022-08-24T16:39:17.650Z,33.08
2022-08-24T16:41:47.089Z,33.00
2022-08-24T16:44:15.006Z,33.71
2022-08-24T16:46:42.840Z,33.60
2022-08-24T16:49:16.171Z,32.85
2022-08-24T16:51:45.494Z,33.48
2022-08-24T16:54:13.764Z,33.88
2022-08-24T16:56:49.020Z,34.45
2022-08-24T16:59:23.672Z,34.87
2022-08-24T17:01:51.567Z,34.53
2022-08-24T17:04:19.355Z,34.93
2022-08-24T17:06:49.812Z,34.67
2022-08-24T17:09:19.677Z,34.38
2022-08-24T17:11:47.605Z,35.05
2022-08-24T17:14:16.706Z,35.29
2022-08-24T17:16:46.235Z,34.86
2022-08-24T17:19:16.114Z,35.15
2022-08-24T17:21:44.888Z,35.19
2022-08-24T17:24:12.780Z,36.06
2022-08-24T17:26:48.416Z,38.10
2022-08-24T17:29:18.631Z,38.85
2022-08-24T17:31:50.437Z,38.17
2022-08-24T17:34:21.158Z,37.38
2022-08-24T17:36:50.349Z,36.66
2022-08-24T17:39:19.054Z,37.96
2022-08-24T17:41:47.279Z,38.39
2022-08-24T17:44:20.983Z,36.29
2022-08-24T17:46:51.515Z,36.95
2022-08-24T17:49:19.670Z,37.35
2022-08-24T17:51:48.427Z,36.92
2022-08-24T17:54:16.330Z,37.24
2022-08-24T17:56:46.527Z,37.65
2022-08-24T17:59:23.669Z,37.85
2022-08-24T18:01:55.035Z,37.50
2022-08-24T18:04:27.634Z,37.63
2022-08-24T18:06:56.692Z,37.58
2022-08-24T18:09:35.229Z,37.91
2022-08-24T18:12:07.074Z,38.14
2022-08-24T18:14:35.491Z,38.69
2022-08-24T18:17:07.988Z,39.47
2022-08-24T18:19:38.436Z,39.73
2022-08-24T18:22:06.899Z,40.38
2022-08-24T18:24:35.238Z,40.87
2022-08-24T18:27:10.078Z,41.45
2022-08-24T18:29:42.519Z,44.97
2022-08-24T18:32:13.448Z,48.56
2022-08-24T18:34:41.928Z,49.49
2022-08-24T18:37:10.024Z,50.62
2022-08-24T18:39:37.876Z,51.08
2022-08-24T18:42:08.908Z,50.88
2022-08-24T18:44:38.523Z,52.05
2022-08-24T18:47:07.099Z,52.33
2022-08-24T18:49:36.588Z,51.83
2022-08-24T18:52:05.064Z,53.25
2022-08-24T18:54:37.340Z,52.11
2022-08-24T18:57:06.942Z,52.94
2022-08-24T18:59:35.840Z,53.55
2022-08-24T19:02:31.553Z,53.89
2022-08-24T19:05:03.237Z,54.62
2022-08-24T19:07:33.685Z,53.09
2022-08-24T19:10:01.520Z,53.13
2022-08-24T19:12:31.489Z,52.91
2022-08-24T19:15:01.843Z,53.18
2022-08-24T19:17:29.954Z,53.35
2022-08-24T19:19:58.784Z,52.99
2022-08-24T19:22:28.872Z,53.98
2022-08-24T19:24:58.364Z,53.00
2022-08-24T19:27:26.205Z,53.13
2022-08-24T19:29:55.904Z,53.79
2022-08-24T19:32:26.800Z,52.04
2022-08-24T19:34:55.677Z,52.85
2022-08-24T19:37:23.802Z,53.45
2022-08-24T19:39:53.304Z,52.86
2022-08-24T19:42:22.099Z,53.20
2022-08-24T19:45:10.584Z,53.71
2022-08-24T19:47:38.718Z,53.34
2022-08-24T19:50:08.346Z,53.45
2022-08-24T19:52:37.466Z,54.10
2022-08-24T19:55:09.708Z,54.45
2022-08-24T19:57:44.440Z,54.69
2022-08-24T20:00:26.560Z,53.94
2022-08-24T20:02:56.331Z,54.36
2022-08-24T20:05:26.728Z,53.69
2022-08-24T20:07:54.634Z,54.71
2022-08-24T20:10:25.091Z,52.59
2022-08-24T20:12:53.427Z,53.93
2022-08-24T20:15:21.962Z,54.50
2022-08-24T20:17:50.507Z,54.73
2022-08-24T20:20:20.850Z,54.11
2022-08-24T20:22:48.818Z,53.62
2022-08-24T20:25:17.158Z,53.41
2022-08-24T20:27:47.130Z,52.21
2022-08-24T20:30:16.131Z,53.07
2022-08-24T20:32:43.975Z,54.14
2022-08-24T20:35:15.777Z,54.00
2022-08-24T20:37:43.769Z,54.47
2022-08-24T20:40:15.292Z,54.99
2022-08-24T20:42:43.236Z,53.46
2022-08-24T20:45:14.154Z,53.82
2022-08-24T20:47:47.157Z,53.44
2022-08-24T20:50:17.043Z,53.04
2022-08-24T20:52:44.788Z,54.75
2022-08-24T20:55:14.099Z,54.09
2022-08-24T20:57:48.175Z,53.63
2022-08-24T21:00:19.264Z,52.91
2022-08-24T21:02:47.123Z,52.91
2022-08-24T21:05:15.198Z,53.00
2022-08-24T21:07:49.463Z,52.13
2022-08-24T21:10:18.276Z,52.72
2022-08-24T21:12:46.475Z,52.11
2022-08-24T21:15:14.496Z,52.20
2022-08-24T21:17:45.171Z,52.81
2022-08-24T21:20:15.080Z,53.52
2022-08-24T21:22:42.891Z,53.20
2022-08-24T21:25:11.551Z,52.85
2022-08-24T21:27:41.692Z,53.48
2022-08-24T21:30:12.483Z,52.36
2022-08-24T21:32:57.788Z,52.85
2022-08-24T21:35:27.076Z,53.19
2022-08-24T21:37:55.091Z,52.78
2022-08-24T21:40:23.338Z,52.83
2022-08-24T21:42:51.553Z,52.66
2022-08-24T21:45:19.514Z,52.69
2022-08-24T21:47:47.923Z,53.05
2022-08-24T21:50:17.743Z,52.44
2022-08-24T21:52:47.056Z,52.08
2022-08-24T21:55:19.143Z,51.40
2022-08-24T21:57:46.962Z,51.65
2022-08-24T22:00:18.585Z,50.78
2022-08-24T22:02:48.046Z,51.35
2022-08-24T22:05:16.712Z,50.83
2022-08-24T22:07:46.260Z,50.02
2022-08-24T22:10:14.680Z,49.62
2022-08-24T22:12:43.764Z,49.46
2022-08-24T22:15:15.801Z,49.49
2022-08-24T22:17:44.445Z,49.23
2022-08-24T22:20:22.324Z,48.90
2022-08-24T22:22:52.802Z,49.61
2022-08-24T22:25:20.802Z,49.54
2022-08-24T22:27:48.816Z,49.12
2022-08-24T22:30:19.409Z,49.75
2022-08-24T22:32:47.817Z,49.62
2022-08-24T22:35:15.936Z,49.31
2022-08-24T22:37:44.312Z,49.75
2022-08-24T22:40:14.051Z,49.76
2022-08-24T22:42:41.927Z,49.02
2022-08-24T22:45:11.022Z,49.40
2022-08-24T22:47:38.995Z,49.72
2022-08-24T22:50:08.142Z,49.53
2022-08-24T22:52:36.011Z,49.55
2022-08-24T22:55:04.159Z,48.94
2022-08-24T22:57:33.729Z,49.80
2022-08-24T23:00:01.993Z,49.64
2022-08-24T23:02:29.811Z,50.50
2022-08-24T23:04:57.638Z,50.57
2022-08-24T23:07:25.635Z,50.72
2022-08-24T23:09:53.523Z,50.56
2022-08-24T23:12:23.339Z,50.34
2022-08-24T23:14:53.524Z,50.93
2022-08-24T23:17:22.063Z,50.32
2022-08-24T23:20:01.130Z,50.24
2022-08-24T23:22:31.243Z,50.16
2022-08-24T23:24:59.514Z,50.17
2022-08-24T23:27:32.642Z,50.34
2022-08-24T23:30:11.288Z,50.50
2022-08-24T23:32:40.189Z,50.33
2022-08-24T23:35:08.942Z,49.67
2022-08-24T23:37:36.787Z,49.88
2022-08-24T23:40:05.710Z,49.87
2022-08-24T23:42:33.679Z,49.95
2022-08-24T23:45:01.491Z,50.29
2022-08-24T23:47:35.777Z,48.94
2022-08-24T23:50:10.813Z,49.81
2022-08-24T23:52:39.647Z,50.16
2022-08-24T23:55:20.055Z,49.98
2022-08-24T23:57:49.819Z,50.56
